createdAt,value
2017-08-01T00:02:10.941Z,5.33
2017-08-01T00:04:39.250Z,5.93
2017-08-01T00:07:07.590Z,6.40
2017-08-01T00:09:35.929Z,6.30
2017-08-01T00:15:04.594Z,7.47
2017-08-01T00:17:33.069Z,4.80
2017-08-01T00:20:01.384Z,5.43
2017-08-01T00:22:29.687Z,5.50
2017-08-01T00:24:58.034Z,5.70
2017-08-01T00:27:26.341Z,5.90
2017-08-01T00:29:54.686Z,6.30
2017-08-01T00:32:23.030Z,6.03
2017-08-01T00:34:51.360Z,5.40
2017-08-01T00:37:19.673Z,6.60
2017-08-01T00:39:48.006Z,5.90
2017-08-01T00:42:16.328Z,6.10
2017-08-01T00:44:44.656Z,6.20
2017-08-01T00:47:13.286Z,5.47
2017-08-01T00:49:41.615Z,6.40
2017-08-01T00:52:09.972Z,5.77
2017-08-01T00:54:38.323Z,5.57
2017-08-01T00:57:06.630Z,5.27
2017-08-01T00:59:34.948Z,5.70
2017-08-01T01:02:03.297Z,5.90
2017-08-01T01:04:31.619Z,5.43
2017-08-01T01:06:59.963Z,6.17
2017-08-01T01:09:28.297Z,5.20
2017-08-01T01:11:56.630Z,6.00
2017-08-01T01:14:24.946Z,5.70
2017-08-01T01:16:53.292Z,6.37
2017-08-01T01:19:21.632Z,6.10
2017-08-01T01:21:49.965Z,5.73
2017-08-01T01:24:18.285Z,5.90
2017-08-01T01:26:46.638Z,5.27
2017-08-01T01:29:14.957Z,6.20
2017-08-01T01:31:43.418Z,6.40
2017-08-01T01:34:11.761Z,6.10
2017-08-01T01:36:40.081Z,5.53
2017-08-01T01:39:08.419Z,5.90
2017-08-01T01:41:36.736Z,6.10
2017-08-01T01:44:05.076Z,6.30
2017-08-01T01:46:33.388Z,6.07
2017-08-01T01:49:01.736Z,5.60
2017-08-01T01:51:30.059Z,5.03
2017-08-01T01:53:58.413Z,6.03
2017-08-01T01:56:26.734Z,6.53
2017-08-01T01:58:55.081Z,7.10
2017-08-01T02:01:23.399Z,6.57
2017-08-01T02:03:51.734Z,6.80
2017-08-01T02:06:20.085Z,7.00
2017-08-01T02:08:48.418Z,6.60
2017-08-01T02:11:16.757Z,7.40
2017-08-01T02:13:45.105Z,6.77
2017-08-01T02:16:13.475Z,6.97
2017-08-01T02:18:41.801Z,7.93
2017-08-01T02:21:10.157Z,7.27
2017-08-01T02:23:38.475Z,6.57
2017-08-01T02:26:06.817Z,7.77
2017-08-01T02:28:35.163Z,7.73
2017-08-01T02:31:03.511Z,7.53
2017-08-01T02:33:31.840Z,6.47
2017-08-01T02:36:00.195Z,5.70
2017-08-01T02:38:28.531Z,5.27
2017-08-01T02:40:56.890Z,5.57
2017-08-01T02:43:25.210Z,5.33
2017-08-01T02:45:53.531Z,4.07
2017-08-01T02:48:21.885Z,4.30
2017-08-01T02:50:50.993Z,4.20
2017-08-01T02:53:19.350Z,4.57
2017-08-01T02:55:47.673Z,4.50
2017-08-01T02:58:16.017Z,4.20
2017-08-01T03:00:44.438Z,4.17
2017-08-01T03:03:14.451Z,4.20
2017-08-01T03:05:42.771Z,3.97
2017-08-01T03:08:11.110Z,3.67
2017-08-01T03:10:39.416Z,3.50
2017-08-01T03:13:07.758Z,3.23
2017-08-01T03:15:36.073Z,2.87
2017-08-01T03:18:04.395Z,2.73
2017-08-01T03:20:32.739Z,2.13
2017-08-01T03:23:01.056Z,2.73
2017-08-01T03:25:29.395Z,2.67
2017-08-01T03:27:57.709Z,3.03
2017-08-01T03:30:26.126Z,3.43
2017-08-01T03:32:54.428Z,2.90
2017-08-01T03:35:22.776Z,2.60
2017-08-01T03:37:51.158Z,3.23
2017-08-01T03:40:19.502Z,2.87
2017-08-01T03:42:47.815Z,3.57
2017-08-01T03:45:16.148Z,3.67
2017-08-01T03:47:44.488Z,2.67
2017-08-01T03:50:12.802Z,3.33
2017-08-01T03:52:41.125Z,3.40
2017-08-01T03:55:09.439Z,3.20
2017-08-01T03:57:37.796Z,2.90
2017-08-01T04:00:06.114Z,3.13
2017-08-01T04:02:34.470Z,3.40
2017-08-01T04:05:02.795Z,2.93
2017-08-01T04:07:31.137Z,2.67
2017-08-01T04:09:59.452Z,2.23
2017-08-01T04:12:27.759Z,2.60
2017-08-01T04:14:56.090Z,2.80
2017-08-01T04:17:24.401Z,2.97
2017-08-01T04:19:52.738Z,2.83
2017-08-01T04:22:21.053Z,2.97
2017-08-01T04:24:49.400Z,3.03
2017-08-01T04:27:17.712Z,2.43
2017-08-01T04:29:46.056Z,2.80
2017-08-01T04:32:14.408Z,3.17
2017-08-01T04:34:42.756Z,3.93
2017-08-01T04:37:11.077Z,2.67
2017-08-01T04:39:39.382Z,3.00
2017-08-01T04:42:08.299Z,2.97
2017-08-01T04:44:48.619Z,3.33
2017-08-01T04:47:18.908Z,3.10
2017-08-01T04:49:47.238Z,3.10
2017-08-01T04:52:15.579Z,2.83
2017-08-01T04:54:43.994Z,3.30
2017-08-01T04:57:12.331Z,2.80
2017-08-01T04:59:40.750Z,2.90
2017-08-01T05:02:09.177Z,2.30
2017-08-01T05:04:37.495Z,2.80
2017-08-01T05:07:06.727Z,2.83
2017-08-01T05:09:35.080Z,2.67
2017-08-01T05:12:03.389Z,2.90
2017-08-01T05:14:31.732Z,2.63
2017-08-01T05:17:00.052Z,3.10
2017-08-01T05:19:28.388Z,2.30
2017-08-01T05:21:56.711Z,2.80
2017-08-01T05:24:25.060Z,2.60
2017-08-01T05:26:53.381Z,3.40
2017-08-01T05:29:22.638Z,2.97
2017-08-01T05:31:50.958Z,2.43
2017-08-01T05:34:19.298Z,2.30
2017-08-01T05:36:47.597Z,2.40
2017-08-01T05:39:15.930Z,2.60
2017-08-01T05:41:44.243Z,2.43
2017-08-01T05:44:12.556Z,2.70
2017-08-01T05:46:40.909Z,2.63
2017-08-01T05:49:09.220Z,2.80
2017-08-01T05:51:37.563Z,2.70
2017-08-01T05:54:05.888Z,2.40
2017-08-01T05:56:34.247Z,2.10
2017-08-01T05:59:02.568Z,2.20
2017-08-01T06:01:30.888Z,2.10
2017-08-01T06:03:59.211Z,2.30
2017-08-01T06:06:27.561Z,1.83
2017-08-01T06:08:55.870Z,1.73
2017-08-01T06:11:24.215Z,2.53
2017-08-01T06:13:52.538Z,1.90
2017-08-01T06:16:20.866Z,2.00
2017-08-01T06:18:49.199Z,1.63
2017-08-01T06:21:17.513Z,1.70
2017-08-01T06:23:45.852Z,1.87
2017-08-01T06:26:14.159Z,1.60
2017-08-01T06:28:42.523Z,1.77
2017-08-01T06:31:10.857Z,2.03
2017-08-01T06:33:39.196Z,1.90
2017-08-01T06:36:07.516Z,1.77
2017-08-01T06:38:35.857Z,1.30
2017-08-01T06:41:04.162Z,1.50
2017-08-01T06:43:32.515Z,1.97
2017-08-01T06:46:00.835Z,2.00
2017-08-01T06:48:29.141Z,1.60
2017-08-01T06:50:57.478Z,1.73
2017-08-01T06:53:25.799Z,1.40
2017-08-01T06:55:54.130Z,1.57
2017-08-01T06:58:22.455Z,1.67
2017-08-01T07:00:50.789Z,2.00
2017-08-01T07:03:19.097Z,2.27
2017-08-01T07:05:47.432Z,1.27
2017-08-01T07:08:15.737Z,1.90
2017-08-01T07:10:44.065Z,1.83
2017-08-01T07:13:12.369Z,1.40
2017-08-01T07:15:40.686Z,1.30
2017-08-01T07:18:09.015Z,1.63
2017-08-01T07:20:37.369Z,1.40
2017-08-01T07:23:05.711Z,2.47
2017-08-01T07:25:34.026Z,1.33
2017-08-01T07:28:02.363Z,1.30
2017-08-01T07:30:30.670Z,1.60
2017-08-01T07:32:58.996Z,1.30
2017-08-01T07:35:27.642Z,1.67
2017-08-01T07:37:56.915Z,1.40
2017-08-01T07:40:25.244Z,1.27
2017-08-01T07:42:53.553Z,1.37
2017-08-01T07:45:21.898Z,1.60
2017-08-01T07:47:50.208Z,1.40
2017-08-01T07:50:18.547Z,2.07
2017-08-01T07:52:46.853Z,1.53
2017-08-01T07:55:15.206Z,1.60
2017-08-01T07:57:43.518Z,1.40
2017-08-01T08:00:11.852Z,1.50
2017-08-01T08:02:40.166Z,1.40
2017-08-01T08:05:08.580Z,1.70
2017-08-01T08:07:36.894Z,1.77
2017-08-01T08:10:05.219Z,1.27
2017-08-01T08:12:33.551Z,1.50
2017-08-01T08:15:01.874Z,1.40
2017-08-01T08:17:30.386Z,1.70
2017-08-01T08:19:58.798Z,1.53
2017-08-01T08:31:27.891Z,1.70
2017-08-01T08:33:56.283Z,1.40
2017-08-01T08:36:24.591Z,1.50
2017-08-01T08:38:52.930Z,1.57
2017-08-01T08:41:21.248Z,1.30
2017-08-01T08:43:49.583Z,1.20
2017-08-01T08:46:17.923Z,1.13
2017-08-01T08:48:46.591Z,1.10
2017-08-01T08:51:14.914Z,1.10
2017-08-01T08:53:43.284Z,1.67
2017-08-01T08:56:11.603Z,1.10
2017-08-01T08:58:39.921Z,1.20
2017-08-01T09:01:08.276Z,1.57
2017-08-01T09:03:36.585Z,2.00
2017-08-01T09:06:04.917Z,1.27
2017-08-01T09:08:33.228Z,1.40
2017-08-01T09:11:01.553Z,1.50
2017-08-01T09:13:29.876Z,1.27
2017-08-01T09:15:58.203Z,1.60
2017-08-01T09:18:26.568Z,1.50
2017-08-01T09:20:55.012Z,1.73
2017-08-01T09:23:24.242Z,1.47
2017-08-01T09:25:52.586Z,1.30
2017-08-01T09:28:20.923Z,1.30
2017-08-01T09:30:49.226Z,1.20
2017-08-01T09:33:17.785Z,1.93
2017-08-01T09:35:46.102Z,1.37
2017-08-01T09:38:14.442Z,1.37
2017-08-01T09:40:42.760Z,2.00
2017-08-01T09:43:11.102Z,1.57
2017-08-01T09:45:39.412Z,1.43
2017-08-01T09:48:07.853Z,1.20
2017-08-01T09:50:36.162Z,1.67
2017-08-01T09:53:04.490Z,1.57
2017-08-01T09:55:32.806Z,1.40
2017-08-01T09:58:01.112Z,1.30
2017-08-01T10:00:29.434Z,1.10
2017-08-01T10:02:57.955Z,1.50
2017-08-01T10:05:26.273Z,1.30
2017-08-01T10:07:54.586Z,1.23
2017-08-01T10:10:22.924Z,1.40
2017-08-01T10:12:51.279Z,1.20
2017-08-01T10:15:19.614Z,1.50
2017-08-01T10:17:47.956Z,1.27
2017-08-01T10:20:16.282Z,1.30
2017-08-01T10:22:44.603Z,1.00
2017-08-01T10:25:12.940Z,1.03
2017-08-01T10:27:41.258Z,1.40
2017-08-01T10:30:09.556Z,1.20
2017-08-01T10:32:37.879Z,1.43
2017-08-01T10:35:06.193Z,0.97
2017-08-01T10:37:34.519Z,1.00
2017-08-01T10:40:02.822Z,1.23
2017-08-01T10:42:31.151Z,1.70
2017-08-01T10:44:59.465Z,1.47
2017-08-01T10:47:27.808Z,1.50
2017-08-01T10:49:56.112Z,1.23
2017-08-01T10:52:24.459Z,1.20
2017-08-01T10:54:52.778Z,1.40
2017-08-01T10:57:21.121Z,1.40
2017-08-01T10:59:49.436Z,1.23
2017-08-01T11:02:17.738Z,1.33
2017-08-01T11:04:46.066Z,1.27
2017-08-01T11:07:14.387Z,1.30
2017-08-01T11:09:42.731Z,1.13
2017-08-01T11:12:11.083Z,1.20
2017-08-01T11:14:39.419Z,1.73
2017-08-01T11:17:07.734Z,1.50
2017-08-01T11:19:36.058Z,1.50
2017-08-01T11:22:04.371Z,1.30
2017-08-01T11:24:32.703Z,1.67
2017-08-01T11:27:01.116Z,1.30
2017-08-01T11:29:29.471Z,1.73
2017-08-01T11:31:58.675Z,1.47
2017-08-01T11:34:26.986Z,1.67
2017-08-01T11:36:55.316Z,1.43
2017-08-01T11:39:23.718Z,1.63
2017-08-01T11:41:52.055Z,1.17
2017-08-01T11:44:20.376Z,1.23
2017-08-01T11:46:48.715Z,1.50
2017-08-01T11:49:17.014Z,1.73
2017-08-01T11:51:45.362Z,1.20
2017-08-01T11:54:13.674Z,1.40
2017-08-01T11:56:42.012Z,1.23
2017-08-01T11:59:10.322Z,1.73
2017-08-01T12:01:38.675Z,1.10
2017-08-01T12:04:07.000Z,1.50
2017-08-01T12:06:35.331Z,1.30
2017-08-01T12:09:03.634Z,1.40
2017-08-01T12:11:31.992Z,1.57
2017-08-01T12:14:00.303Z,1.33
2017-08-01T12:16:28.626Z,1.50
2017-08-01T12:18:56.960Z,1.67
2017-08-01T12:21:25.269Z,1.27
2017-08-01T12:23:53.609Z,1.80
2017-08-01T12:26:21.930Z,1.70
2017-08-01T12:28:50.266Z,1.40
2017-08-01T12:31:18.580Z,2.00
2017-08-01T12:33:46.916Z,1.43
2017-08-01T12:36:15.226Z,1.90
2017-08-01T12:38:43.575Z,1.50
2017-08-01T12:41:11.902Z,1.93
2017-08-01T12:46:40.367Z,1.50
2017-08-01T12:49:08.702Z,1.23
2017-08-01T12:51:37.016Z,1.70
2017-08-01T12:54:05.321Z,2.00
2017-08-01T12:56:33.653Z,1.40
2017-08-01T12:59:01.958Z,1.80
2017-08-01T13:01:30.286Z,1.70
2017-08-01T13:03:58.599Z,1.57
2017-08-01T13:06:26.935Z,2.33
2017-08-01T13:08:55.259Z,1.60
2017-08-01T13:11:23.597Z,1.90
2017-08-01T13:13:51.905Z,1.90
2017-08-01T13:16:20.305Z,1.57
2017-08-01T13:18:48.705Z,2.27
2017-08-01T13:21:17.022Z,1.57
2017-08-01T13:23:45.352Z,2.20
2017-08-01T13:26:13.659Z,1.60
2017-08-01T13:28:41.992Z,1.93
2017-08-01T13:31:10.306Z,2.20
2017-08-01T13:33:38.659Z,2.00
2017-08-01T13:36:06.983Z,2.10
2017-08-01T13:38:35.322Z,1.40
2017-08-01T13:41:03.636Z,1.77
2017-08-01T13:43:31.975Z,1.70
2017-08-01T13:46:00.276Z,1.90
2017-08-01T13:48:31.857Z,2.17
2017-08-01T13:51:00.162Z,1.90
2017-08-01T13:53:28.473Z,1.70
2017-08-01T13:55:56.815Z,1.63
2017-08-01T13:58:25.120Z,1.90
2017-08-01T14:00:53.444Z,2.13
2017-08-01T14:03:21.755Z,1.70
2017-08-01T14:05:50.094Z,1.67
2017-08-01T14:08:18.416Z,2.17
2017-08-01T14:10:46.759Z,2.07
2017-08-01T14:13:15.075Z,2.10
2017-08-01T14:15:43.410Z,1.63
2017-08-01T14:18:12.629Z,1.50
2017-08-01T14:20:40.966Z,1.50
2017-08-01T14:23:09.279Z,2.07
2017-08-01T14:25:37.598Z,2.23
2017-08-01T14:28:05.922Z,1.53
2017-08-01T14:30:34.235Z,2.47
2017-08-01T14:33:02.562Z,1.80
2017-08-01T14:35:30.870Z,2.07
2017-08-01T14:37:59.215Z,2.50
2017-08-01T14:40:27.585Z,2.50
2017-08-01T14:42:55.918Z,2.60
2017-08-01T14:45:24.243Z,2.13
2017-08-01T14:47:52.608Z,1.90
2017-08-01T14:50:20.930Z,1.70
2017-08-01T14:52:49.241Z,2.30
2017-08-01T14:55:17.578Z,1.90
2017-08-01T14:57:45.918Z,2.00
2017-08-01T15:00:14.875Z,1.73
2017-08-01T15:02:43.374Z,1.60
2017-08-01T15:05:11.985Z,1.43
2017-08-01T15:07:41.413Z,1.43
2017-08-01T15:10:09.759Z,1.60
2017-08-01T15:12:38.077Z,1.93
2017-08-01T15:15:06.411Z,1.73
2017-08-01T15:17:34.735Z,1.80
2017-08-01T15:20:03.067Z,1.70
2017-08-01T15:22:31.934Z,1.57
2017-08-01T15:25:00.272Z,1.83
2017-08-01T15:27:28.935Z,1.70
2017-08-01T15:29:57.302Z,1.80
2017-08-01T15:32:26.563Z,1.77
2017-08-01T15:34:54.883Z,2.23
2017-08-01T15:37:23.323Z,2.20
2017-08-01T15:39:51.632Z,2.40
2017-08-01T15:42:19.967Z,1.33
2017-08-01T15:44:48.595Z,1.30
2017-08-01T15:47:16.962Z,1.57
2017-08-01T15:49:46.193Z,2.27
2017-08-01T15:52:14.534Z,1.60
2017-08-01T15:54:43.102Z,1.73
2017-08-01T15:57:11.505Z,2.10
2017-08-01T15:59:39.824Z,2.40
2017-08-01T16:02:08.184Z,2.13
2017-08-01T16:04:36.743Z,2.57
2017-08-01T16:07:05.090Z,2.00
2017-08-01T16:09:33.422Z,1.90
2017-08-01T16:12:01.741Z,1.57
2017-08-01T16:14:30.079Z,1.73
2017-08-01T16:16:58.395Z,1.50
2017-08-01T16:19:27.654Z,2.20
2017-08-01T16:21:55.966Z,2.17
2017-08-01T16:24:24.307Z,1.53
2017-08-01T16:26:52.620Z,2.10
2017-08-01T16:29:21.861Z,2.27
2017-08-01T16:31:50.173Z,1.80
2017-08-01T16:34:18.510Z,1.70
2017-08-01T16:36:47.736Z,1.97
2017-08-01T16:39:16.083Z,1.70
2017-08-01T16:41:44.403Z,2.07
2017-08-01T16:44:12.804Z,1.63
2017-08-01T16:46:42.444Z,1.90
2017-08-01T16:49:10.767Z,1.90
2017-08-01T16:51:39.094Z,1.67
2017-08-01T16:57:07.416Z,1.60
2017-08-01T16:59:35.772Z,1.77
2017-08-01T17:02:04.199Z,2.10
2017-08-01T17:04:32.513Z,2.17
2017-08-01T17:07:01.051Z,1.80
2017-08-01T17:09:29.349Z,2.30
2017-08-01T17:11:57.770Z,2.13
2017-08-01T17:14:26.138Z,2.23
2017-08-01T17:16:54.617Z,2.40
2017-08-01T17:19:22.946Z,3.13
2017-08-01T17:21:51.285Z,2.00
2017-08-01T17:24:20.529Z,1.93
2017-08-01T17:26:48.873Z,2.67
2017-08-01T17:29:17.180Z,2.30
2017-08-01T17:31:45.845Z,2.07
2017-08-01T17:34:15.064Z,2.57
2017-08-01T17:36:43.402Z,2.20
2017-08-01T17:39:12.140Z,3.17
2017-08-01T17:41:41.358Z,2.33
2017-08-01T17:44:09.686Z,2.60
2017-08-01T17:46:38.256Z,2.70
2017-08-01T17:49:06.713Z,3.30
2017-08-01T17:51:35.037Z,3.20
2017-08-01T17:54:03.512Z,2.80
2017-08-01T17:56:32.160Z,2.83
2017-08-01T17:59:00.504Z,2.90
2017-08-01T18:01:28.814Z,2.33
2017-08-01T18:03:57.191Z,2.93
2017-08-01T18:06:25.850Z,3.10
2017-08-01T18:08:54.368Z,2.57
2017-08-01T18:11:22.683Z,3.17
2017-08-01T18:13:51.023Z,2.53
2017-08-01T18:16:20.249Z,2.70
2017-08-01T18:18:48.553Z,3.07
2017-08-01T18:21:16.895Z,2.50
2017-08-01T18:23:45.210Z,2.63
2017-08-01T18:26:13.546Z,2.30
2017-08-01T18:28:42.782Z,3.13
2017-08-01T18:31:12.038Z,3.30
2017-08-01T18:33:40.355Z,3.07
2017-08-01T18:36:08.770Z,2.67
2017-08-01T18:38:37.083Z,2.90
2017-08-01T18:41:05.434Z,4.03
2017-08-01T18:43:33.764Z,3.30
2017-08-01T18:46:02.121Z,2.90
2017-08-01T18:48:30.451Z,3.33
2017-08-01T18:50:58.889Z,3.67
2017-08-01T18:53:27.208Z,3.50
2017-08-01T18:55:55.515Z,4.00
2017-08-01T18:58:23.845Z,5.00
2017-08-01T19:00:52.163Z,4.30
2017-08-01T19:03:20.507Z,4.10
2017-08-01T19:05:48.832Z,4.00
2017-08-01T19:08:17.210Z,4.10
2017-08-01T19:10:45.527Z,4.17
2017-08-01T19:13:13.875Z,4.73
2017-08-01T19:15:43.108Z,4.80
2017-08-01T19:18:11.489Z,4.20
2017-08-01T19:20:40.099Z,5.50
2017-08-01T19:23:08.460Z,4.57
2017-08-01T19:25:36.858Z,5.03
2017-08-01T19:28:05.186Z,3.80
2017-08-01T19:30:36.688Z,4.00
2017-08-01T19:33:05.013Z,5.10
2017-08-01T19:35:39.436Z,4.50
2017-08-01T19:38:11.373Z,4.57
2017-08-01T19:40:45.558Z,4.70
2017-08-01T19:43:13.990Z,4.10
2017-08-01T19:46:03.142Z,5.43
2017-08-01T19:48:31.546Z,4.67
2017-08-01T19:51:01.085Z,4.57
2017-08-01T19:53:29.479Z,4.37
2017-08-01T19:55:59.303Z,4.57
2017-08-01T19:58:27.615Z,5.73
2017-08-01T20:00:55.954Z,5.37
2017-08-01T20:03:24.275Z,5.87
2017-08-01T20:05:52.645Z,5.60
2017-08-01T20:08:20.960Z,4.90
2017-08-01T20:10:49.307Z,5.70
2017-08-01T20:13:17.612Z,5.77
2017-08-01T20:15:45.948Z,5.20
2017-08-01T20:18:14.298Z,5.70
2017-08-01T20:20:42.624Z,5.87
2017-08-01T20:23:10.975Z,6.10
2017-08-01T20:25:39.291Z,5.50
2017-08-01T20:28:07.637Z,6.83
2017-08-01T20:30:35.967Z,5.43
2017-08-01T20:33:04.311Z,6.07
2017-08-01T20:35:32.715Z,6.10
2017-08-01T20:38:01.054Z,6.50
2017-08-01T20:40:29.379Z,6.03
2017-08-01T20:42:57.859Z,5.60
2017-08-01T20:45:26.298Z,5.50
2017-08-01T20:47:54.618Z,6.60
2017-08-01T20:50:22.957Z,5.83
2017-08-01T20:52:51.291Z,5.83
2017-08-01T20:55:19.644Z,6.00
2017-08-01T20:57:47.966Z,6.03
2017-08-01T21:00:16.305Z,5.43
2017-08-01T21:02:44.619Z,5.37
2017-08-01T21:05:12.975Z,6.20
2017-08-01T21:07:41.299Z,5.43
2017-08-01T21:10:09.644Z,5.43
2017-08-01T21:12:37.958Z,5.60
2017-08-01T21:15:06.318Z,6.20
2017-08-01T21:17:34.637Z,5.63
2017-08-01T21:20:02.968Z,6.80
2017-08-01T21:22:31.311Z,5.63
2017-08-01T21:24:59.625Z,6.17
2017-08-01T21:27:27.957Z,5.30
2017-08-01T21:29:56.268Z,5.70
2017-08-01T21:32:24.625Z,6.10
2017-08-01T21:34:52.954Z,6.03
2017-08-01T21:37:21.311Z,6.40
2017-08-01T21:39:49.648Z,6.10
2017-08-01T21:42:17.986Z,6.97
2017-08-01T21:44:46.309Z,6.80
2017-08-01T21:47:14.655Z,5.90
2017-08-01T21:49:42.983Z,5.80
2017-08-01T21:52:11.327Z,5.83
2017-08-01T21:54:39.649Z,6.33
2017-08-01T21:57:07.997Z,5.90
2017-08-01T21:59:55.297Z,5.90
2017-08-01T22:02:23.687Z,6.30
2017-08-01T22:04:52.011Z,6.87
2017-08-01T22:07:20.394Z,5.63
2017-08-01T22:09:48.734Z,6.30
2017-08-01T22:12:17.059Z,5.53
2017-08-01T22:14:45.411Z,5.70
2017-08-01T22:17:13.716Z,5.20
2017-08-01T22:19:42.058Z,5.63
2017-08-01T22:22:10.390Z,5.77
2017-08-01T22:24:38.732Z,6.23
2017-08-01T22:27:07.063Z,4.67
2017-08-01T22:29:35.447Z,5.97
2017-08-01T22:32:03.768Z,5.87
2017-08-01T22:34:32.109Z,6.50
2017-08-01T22:37:00.439Z,5.23
2017-08-01T22:39:28.782Z,5.27
2017-08-01T22:41:57.107Z,5.50
2017-08-01T22:44:25.510Z,5.70
2017-08-01T22:46:53.860Z,6.57
2017-08-01T22:49:22.178Z,6.10
2017-08-01T22:51:50.518Z,5.43
2017-08-01T22:54:18.838Z,6.30
2017-08-01T22:56:47.173Z,5.50
2017-08-01T22:59:15.502Z,5.20
2017-08-01T23:01:43.853Z,5.90
2017-08-01T23:04:12.160Z,5.90
2017-08-01T23:06:40.499Z,5.90
2017-08-01T23:09:08.829Z,6.40
2017-08-01T23:11:37.195Z,7.00
2017-08-01T23:14:05.760Z,5.80
2017-08-01T23:16:34.098Z,5.70
2017-08-01T23:19:02.439Z,6.00
2017-08-01T23:21:30.755Z,5.40
2017-08-01T23:23:59.105Z,6.10
2017-08-01T23:26:27.418Z,5.57
2017-08-01T23:28:55.774Z,5.40
2017-08-01T23:31:24.092Z,5.77
2017-08-01T23:33:52.430Z,6.27
2017-08-01T23:36:20.759Z,6.40
2017-08-01T23:38:49.110Z,5.70
2017-08-01T23:41:29.828Z,5.87
2017-08-01T23:43:58.224Z,6.60
2017-08-01T23:46:26.550Z,6.17
2017-08-01T23:48:54.899Z,5.90
2017-08-01T23:51:23.218Z,5.73
2017-08-01T23:53:51.538Z,6.20
2017-08-01T23:56:19.894Z,7.07
2017-08-01T23:58:48.236Z,6.40
